sensor_id;sensor_type;location;lat;lon;timestamp;temperature;humidity
16980;DHT22;42288;52.182;21.156;2023-03-01T00:01:05;-0.90;90.60
16980;DHT22;42288;52.182;21.156;2023-03-01T00:03:31;-1.10;90.90
16980;DHT22;42288;52.182;21.156;2023-03-01T00:05:57;-0.80;91.60
16980;DHT22;42288;52.182;21.156;2023-03-01T00:08:23;-0.60;91.60
16980;DHT22;42288;52.182;21.156;2023-03-01T00:10:49;-0.40;91.50
16980;DHT22;42288;52.182;21.156;2023-03-01T00:13:14;-0.70;90.20
16980;DHT22;42288;52.182;21.156;2023-03-01T00:15:40;-0.50;91.00
16980;DHT22;42288;52.182;21.156;2023-03-01T00:18:07;-0.50;90.90
16980;DHT22;42288;52.182;21.156;2023-03-01T00:20:32;-0.90;90.10
16980;DHT22;42288;52.182;21.156;2023-03-01T00:22:58;-0.80;91.20
16980;DHT22;42288;52.182;21.156;2023-03-01T00:25:23;-0.60;91.40
16980;DHT22;42288;52.182;21.156;2023-03-01T00:27:49;-0.50;91.00
16980;DHT22;42288;52.182;21.156;2023-03-01T00:30:15;-0.80;89.80
16980;DHT22;42288;52.182;21.156;2023-03-01T00:32:40;-0.90;90.50
16980;DHT22;42288;52.182;21.156;2023-03-01T00:35:06;-0.90;91.00
16980;DHT22;42288;52.182;21.156;2023-03-01T00:37:32;-0.90;90.90
16980;DHT22;42288;52.182;21.156;2023-03-01T00:39:57;-0.90;91.50
16980;DHT22;42288;52.182;21.156;2023-03-01T00:42:23;-0.60;92.10
16980;DHT22;42288;52.182;21.156;2023-03-01T00:44:48;-0.50;92.10
16980;DHT22;42288;52.182;21.156;2023-03-01T00:47:14;-0.50;92.40
16980;DHT22;42288;52.182;21.156;2023-03-01T00:49:40;-0.40;92.70
16980;DHT22;42288;52.182;21.156;2023-03-01T00:52:05;-0.30;93.10
16980;DHT22;42288;52.182;21.156;2023-03-01T00:54:31;-0.30;93.30
16980;DHT22;42288;52.182;21.156;2023-03-01T00:56:56;-0.20;93.30
16980;DHT22;42288;52.182;21.156;2023-03-01T00:59:22;0.00;92.80
16980;DHT22;42288;52.182;21.156;2023-03-01T01:01:48;-0.20;92.40
16980;DHT22;42288;52.182;21.156;2023-03-01T01:04:13;-0.40;91.90
16980;DHT22;42288;52.182;21.156;2023-03-01T01:06:41;-0.40;92.20
16980;DHT22;42288;52.182;21.156;2023-03-01T01:09:08;-0.50;92.20
16980;DHT22;42288;52.182;21.156;2023-03-01T01:11:35;-0.40;92.60
16980;DHT22;42288;52.182;21.156;2023-03-01T01:14:02;-0.30;92.50
16980;DHT22;42288;52.182;21.156;2023-03-01T01:16:28;-0.20;91.90
16980;DHT22;42288;52.182;21.156;2023-03-01T01:18:55;-0.40;91.40
16980;DHT22;42288;52.182;21.156;2023-03-01T01:21:22;-0.40;91.90
16980;DHT22;42288;52.182;21.156;2023-03-01T01:23:49;-0.40;92.30
16980;DHT22;42288;52.182;21.156;2023-03-01T01:26:23;-0.30;92.10
16980;DHT22;42288;52.182;21.156;2023-03-01T01:28:49;-0.30;91.80
16980;DHT22;42288;52.182;21.156;2023-03-01T01:31:15;-0.20;91.90
16980;DHT22;42288;52.182;21.156;2023-03-01T01:33:40;0.00;91.80
16980;DHT22;42288;52.182;21.156;2023-03-01T01:36:07;0.00;91.20
16980;DHT22;42288;52.182;21.156;2023-03-01T01:38:34;-0.40;90.60
16980;DHT22;42288;52.182;21.156;2023-03-01T01:40:59;-0.80;91.10
16980;DHT22;42288;52.182;21.156;2023-03-01T01:43:29;-0.80;91.90
16980;DHT22;42288;52.182;21.156;2023-03-01T01:46:01;-0.60;92.50
16980;DHT22;42288;52.182;21.156;2023-03-01T01:48:44;-0.60;92.00
16980;DHT22;42288;52.182;21.156;2023-03-01T01:51:16;-0.50;92.00
16980;DHT22;42288;52.182;21.156;2023-03-01T01:53:43;-0.30;92.00
16980;DHT22;42288;52.182;21.156;2023-03-01T01:56:12;-0.40;91.70
16980;DHT22;42288;52.182;21.156;2023-03-01T01:58:41;-0.50;91.50
16980;DHT22;42288;52.182;21.156;2023-03-01T02:01:07;-0.40;91.40
16980;DHT22;42288;52.182;21.156;2023-03-01T02:03:34;-0.20;91.60
16980;DHT22;42288;52.182;21.156;2023-03-01T02:06:25;-0.30;91.30
16980;DHT22;42288;52.182;21.156;2023-03-01T02:08:57;-0.40;91.10
16980;DHT22;42288;52.182;21.156;2023-03-01T02:11:24;-0.40;90.90
16980;DHT22;42288;52.182;21.156;2023-03-01T02:13:51;-0.30;91.00
16980;DHT22;42288;52.182;21.156;2023-03-01T02:16:18;-0.30;91.00
16980;DHT22;42288;52.182;21.156;2023-03-01T02:18:44;-0.40;91.10
16980;DHT22;42288;52.182;21.156;2023-03-01T02:23:44;-0.80;91.20
16980;DHT22;42288;52.182;21.156;2023-03-01T02:26:20;-0.90;91.70
16980;DHT22;42288;52.182;21.156;2023-03-01T02:28:50;-0.70;92.10
16980;DHT22;42288;52.182;21.156;2023-03-01T02:31:17;-0.70;92.00
16980;DHT22;42288;52.182;21.156;2023-03-01T02:34:03;-0.70;92.00
16980;DHT22;42288;52.182;21.156;2023-03-01T02:36:38;-0.70;91.60
16980;DHT22;42288;52.182;21.156;2023-03-01T02:39:07;-0.70;91.80
16980;DHT22;42288;52.182;21.156;2023-03-01T02:41:42;-0.60;92.10
16980;DHT22;42288;52.182;21.156;2023-03-01T02:44:08;-0.50;91.80
16980;DHT22;42288;52.182;21.156;2023-03-01T02:46:42;-0.60;91.40
16980;DHT22;42288;52.182;21.156;2023-03-01T02:49:25;-0.80;91.50
16980;DHT22;42288;52.182;21.156;2023-03-01T02:56:59;-0.70;91.90
16980;DHT22;42288;52.182;21.156;2023-03-01T02:59:30;-0.60;92.10
16980;DHT22;42288;52.182;21.156;2023-03-01T03:01:56;-0.70;91.80
16980;DHT22;42288;52.182;21.156;2023-03-01T03:04:22;-0.90;92.10
16980;DHT22;42288;52.182;21.156;2023-03-01T03:06:50;-1.10;93.40
16980;DHT22;42288;52.182;21.156;2023-03-01T03:09:17;-0.60;94.40
16980;DHT22;42288;52.182;21.156;2023-03-01T03:11:43;-0.50;94.50
16980;DHT22;42288;52.182;21.156;2023-03-01T03:14:14;-0.20;94.60
16980;DHT22;42288;52.182;21.156;2023-03-01T03:16:44;-0.10;94.30
16980;DHT22;42288;52.182;21.156;2023-03-01T03:19:11;0.00;94.30
16980;DHT22;42288;52.182;21.156;2023-03-01T03:21:37;-0.40;94.00
16980;DHT22;42288;52.182;21.156;2023-03-01T03:24:03;-0.20;94.90
16980;DHT22;42288;52.182;21.156;2023-03-01T03:26:29;-0.20;94.90
16980;DHT22;42288;52.182;21.156;2023-03-01T03:28:55;-0.10;95.00
16980;DHT22;42288;52.182;21.156;2023-03-01T03:31:20;0.00;95.20
16980;DHT22;42288;52.182;21.156;2023-03-01T03:33:46;-0.10;94.50
16980;DHT22;42288;52.182;21.156;2023-03-01T03:36:17;0.10;95.20
16980;DHT22;42288;52.182;21.156;2023-03-01T03:38:43;0.30;95.10
16980;DHT22;42288;52.182;21.156;2023-03-01T03:41:09;-0.10;94.50
16980;DHT22;42288;52.182;21.156;2023-03-01T03:43:36;0.00;95.20
16980;DHT22;42288;52.182;21.156;2023-03-01T03:46:03;0.10;95.20
16980;DHT22;42288;52.182;21.156;2023-03-01T03:48:31;0.20;94.90
16980;DHT22;42288;52.182;21.156;2023-03-01T03:50:58;0.30;95.00
16980;DHT22;42288;52.182;21.156;2023-03-01T03:53:27;-0.20;93.80
16980;DHT22;42288;52.182;21.156;2023-03-01T03:55:54;-0.40;94.70
16980;DHT22;42288;52.182;21.156;2023-03-01T03:58:21;-0.30;94.80
16980;DHT22;42288;52.182;21.156;2023-03-01T04:00:49;-0.10;95.10
16980;DHT22;42288;52.182;21.156;2023-03-01T04:03:16;0.00;95.00
16980;DHT22;42288;52.182;21.156;2023-03-01T04:05:42;-0.10;94.10
16980;DHT22;42288;52.182;21.156;2023-03-01T04:08:08;-0.20;94.30
16980;DHT22;42288;52.182;21.156;2023-03-01T04:10:40;-0.50;94.10
16980;DHT22;42288;52.182;21.156;2023-03-01T04:13:08;-0.30;95.00
16980;DHT22;42288;52.182;21.156;2023-03-01T04:15:36;-0.10;94.70
16980;DHT22;42288;52.182;21.156;2023-03-01T04:18:02;0.00;94.60
16980;DHT22;42288;52.182;21.156;2023-03-01T04:20:30;0.20;94.70
16980;DHT22;42288;52.182;21.156;2023-03-01T04:23:13;0.10;94.40
16980;DHT22;42288;52.182;21.156;2023-03-01T04:25:46;-0.10;94.10
16980;DHT22;42288;52.182;21.156;2023-03-01T04:28:15;0.20;94.70
16980;DHT22;42288;52.182;21.156;2023-03-01T04:30:41;0.50;95.00
16980;DHT22;42288;52.182;21.156;2023-03-01T04:33:08;0.30;94.00
16980;DHT22;42288;52.182;21.156;2023-03-01T04:35:35;0.20;94.20
16980;DHT22;42288;52.182;21.156;2023-03-01T04:38:01;0.50;94.90
16980;DHT22;42288;52.182;21.156;2023-03-01T04:40:26;0.30;94.40
16980;DHT22;42288;52.182;21.156;2023-03-01T04:42:52;0.30;94.80
16980;DHT22;42288;52.182;21.156;2023-03-01T04:45:18;0.50;94.70
16980;DHT22;42288;52.182;21.156;2023-03-01T04:47:45;0.70;94.60
16980;DHT22;42288;52.182;21.156;2023-03-01T04:50:13;0.90;94.30
16980;DHT22;42288;52.182;21.156;2023-03-01T04:52:39;1.00;94.10
16980;DHT22;42288;52.182;21.156;2023-03-01T04:55:05;1.10;93.90
16980;DHT22;42288;52.182;21.156;2023-03-01T04:57:32;1.20;93.70
16980;DHT22;42288;52.182;21.156;2023-03-01T04:59:58;1.20;93.50
16980;DHT22;42288;52.182;21.156;2023-03-01T05:02:23;1.20;93.50
16980;DHT22;42288;52.182;21.156;2023-03-01T05:04:49;1.20;93.70
16980;DHT22;42288;52.182;21.156;2023-03-01T05:07:14;1.10;93.90
16980;DHT22;42288;52.182;21.156;2023-03-01T05:09:47;1.20;93.50
16980;DHT22;42288;52.182;21.156;2023-03-01T05:12:13;0.80;93.70
16980;DHT22;42288;52.182;21.156;2023-03-01T05:14:40;0.80;94.10
16980;DHT22;42288;52.182;21.156;2023-03-01T05:17:06;0.80;94.40
16980;DHT22;42288;52.182;21.156;2023-03-01T05:19:32;0.80;94.50
16980;DHT22;42288;52.182;21.156;2023-03-01T05:21:58;0.80;94.60
16980;DHT22;42288;52.182;21.156;2023-03-01T05:24:27;0.80;94.70
16980;DHT22;42288;52.182;21.156;2023-03-01T05:26:53;0.60;94.30
16980;DHT22;42288;52.182;21.156;2023-03-01T05:29:20;0.20;94.60
16980;DHT22;42288;52.182;21.156;2023-03-01T05:31:51;0.40;95.30
16980;DHT22;42288;52.182;21.156;2023-03-01T05:34:17;0.60;95.20
16980;DHT22;42288;52.182;21.156;2023-03-01T05:36:43;0.90;94.80
16980;DHT22;42288;52.182;21.156;2023-03-01T05:39:08;0.70;94.20
16980;DHT22;42288;52.182;21.156;2023-03-01T05:41:34;0.60;94.40
16980;DHT22;42288;52.182;21.156;2023-03-01T05:43:59;0.30;94.20
16980;DHT22;42288;52.182;21.156;2023-03-01T05:46:25;0.10;94.70
16980;DHT22;42288;52.182;21.156;2023-03-01T05:48:50;0.40;95.20
16980;DHT22;42288;52.182;21.156;2023-03-01T05:51:16;0.10;95.10
16980;DHT22;42288;52.182;21.156;2023-03-01T05:53:42;0.20;95.60
16980;DHT22;42288;52.182;21.156;2023-03-01T05:56:08;0.50;95.80
16980;DHT22;42288;52.182;21.156;2023-03-01T05:58:34;0.70;95.70
16980;DHT22;42288;52.182;21.156;2023-03-01T06:00:59;0.90;95.10
16980;DHT22;42288;52.182;21.156;2023-03-01T06:03:25;0.90;94.90
16980;DHT22;42288;52.182;21.156;2023-03-01T06:05:56;1.10;95.00
16980;DHT22;42288;52.182;21.156;2023-03-01T06:08:21;1.20;95.10
16980;DHT22;42288;52.182;21.156;2023-03-01T06:10:47;1.40;94.70
16980;DHT22;42288;52.182;21.156;2023-03-01T06:13:13;1.60;94.40
16980;DHT22;42288;52.182;21.156;2023-03-01T06:15:38;1.90;93.90
16980;DHT22;42288;52.182;21.156;2023-03-01T06:18:04;2.00;93.40
16980;DHT22;42288;52.182;21.156;2023-03-01T06:20:29;2.10;93.20
16980;DHT22;42288;52.182;21.156;2023-03-01T06:22:56;2.00;93.20
16980;DHT22;42288;52.182;21.156;2023-03-01T06:25:24;2.00;93.30
16980;DHT22;42288;52.182;21.156;2023-03-01T06:27:50;2.20;93.30
16980;DHT22;42288;52.182;21.156;2023-03-01T06:30:19;2.40;93.10
16980;DHT22;42288;52.182;21.156;2023-03-01T06:32:45;2.30;92.40
16980;DHT22;42288;52.182;21.156;2023-03-01T06:35:12;2.30;92.60
16980;DHT22;42288;52.182;21.156;2023-03-01T06:37:38;2.40;92.90
16980;DHT22;42288;52.182;21.156;2023-03-01T06:40:05;2.60;92.60
16980;DHT22;42288;52.182;21.156;2023-03-01T06:42:37;2.50;92.50
16980;DHT22;42288;52.182;21.156;2023-03-01T06:45:05;2.60;92.20
16980;DHT22;42288;52.182;21.156;2023-03-01T06:47:31;2.60;92.30
16980;DHT22;42288;52.182;21.156;2023-03-01T06:49:58;2.60;92.70
16980;DHT22;42288;52.182;21.156;2023-03-01T06:52:24;2.60;92.70
16980;DHT22;42288;52.182;21.156;2023-03-01T06:54:50;2.90;92.10
16980;DHT22;42288;52.182;21.156;2023-03-01T06:57:16;3.00;92.10
16980;DHT22;42288;52.182;21.156;2023-03-01T06:59:42;2.90;91.90
16980;DHT22;42288;52.182;21.156;2023-03-01T07:02:10;2.80;91.90
16980;DHT22;42288;52.182;21.156;2023-03-01T07:04:37;2.70;92.00
16980;DHT22;42288;52.182;21.156;2023-03-01T07:07:03;3.00;91.70
16980;DHT22;42288;52.182;21.156;2023-03-01T07:09:28;2.90;92.00
16980;DHT22;42288;52.182;21.156;2023-03-01T07:11:54;3.10;91.40
16980;DHT22;42288;52.182;21.156;2023-03-01T07:14:20;3.10;91.30
16980;DHT22;42288;52.182;21.156;2023-03-01T07:16:46;3.20;91.10
16980;DHT22;42288;52.182;21.156;2023-03-01T07:19:11;3.20;91.50
16980;DHT22;42288;52.182;21.156;2023-03-01T07:21:37;3.20;91.20
16980;DHT22;42288;52.182;21.156;2023-03-01T07:24:06;3.30;91.60
16980;DHT22;42288;52.182;21.156;2023-03-01T07:26:31;3.40;91.40
16980;DHT22;42288;52.182;21.156;2023-03-01T07:28:59;3.20;91.40
16980;DHT22;42288;52.182;21.156;2023-03-01T07:31:25;3.30;91.80
16980;DHT22;42288;52.182;21.156;2023-03-01T07:33:53;3.50;91.60
16980;DHT22;42288;52.182;21.156;2023-03-01T07:36:19;3.60;91.20
16980;DHT22;42288;52.182;21.156;2023-03-01T07:38:44;3.60;91.10
16980;DHT22;42288;52.182;21.156;2023-03-01T07:41:10;3.70;91.10
16980;DHT22;42288;52.182;21.156;2023-03-01T07:43:35;3.90;90.80
16980;DHT22;42288;52.182;21.156;2023-03-01T07:46:02;3.90;90.80
16980;DHT22;42288;52.182;21.156;2023-03-01T07:48:28;3.90;90.70
16980;DHT22;42288;52.182;21.156;2023-03-01T07:50:54;3.90;90.70
16980;DHT22;42288;52.182;21.156;2023-03-01T07:53:20;4.00;90.70
16980;DHT22;42288;52.182;21.156;2023-03-01T07:55:45;4.20;90.30
16980;DHT22;42288;52.182;21.156;2023-03-01T07:58:11;4.30;90.50
16980;DHT22;42288;52.182;21.156;2023-03-01T08:00:36;4.30;89.90
16980;DHT22;42288;52.182;21.156;2023-03-01T08:03:02;4.30;90.10
16980;DHT22;42288;52.182;21.156;2023-03-01T08:05:28;4.50;90.00
16980;DHT22;42288;52.182;21.156;2023-03-01T08:07:54;4.50;90.30
16980;DHT22;42288;52.182;21.156;2023-03-01T08:10:20;4.50;90.10
16980;DHT22;42288;52.182;21.156;2023-03-01T08:12:45;4.70;90.00
16980;DHT22;42288;52.182;21.156;2023-03-01T08:15:11;4.90;89.60
16980;DHT22;42288;52.182;21.156;2023-03-01T08:17:37;5.00;89.20
16980;DHT22;42288;52.182;21.156;2023-03-01T08:20:03;5.10;88.90
16980;DHT22;42288;52.182;21.156;2023-03-01T08:22:31;5.10;88.80
16980;DHT22;42288;52.182;21.156;2023-03-01T08:24:57;5.20;89.60
16980;DHT22;42288;52.182;21.156;2023-03-01T08:27:22;5.30;90.00
16980;DHT22;42288;52.182;21.156;2023-03-01T08:29:48;5.60;88.80
16980;DHT22;42288;52.182;21.156;2023-03-01T08:32:13;5.60;88.00
16980;DHT22;42288;52.182;21.156;2023-03-01T08:34:39;5.70;87.30
16980;DHT22;42288;52.182;21.156;2023-03-01T08:37:04;5.70;88.00
16980;DHT22;42288;52.182;21.156;2023-03-01T08:39:30;6.00;88.30
16980;DHT22;42288;52.182;21.156;2023-03-01T08:41:56;6.20;87.50
16980;DHT22;42288;52.182;21.156;2023-03-01T08:44:22;6.40;87.50
16980;DHT22;42288;52.182;21.156;2023-03-01T08:46:48;6.40;87.40
16980;DHT22;42288;52.182;21.156;2023-03-01T08:49:17;6.20;88.50
16980;DHT22;42288;52.182;21.156;2023-03-01T08:51:44;6.10;89.30
16980;DHT22;42288;52.182;21.156;2023-03-01T08:54:13;6.10;89.50
16980;DHT22;42288;52.182;21.156;2023-03-01T08:56:40;6.20;90.10
16980;DHT22;42288;52.182;21.156;2023-03-01T08:59:06;6.40;90.00
16980;DHT22;42288;52.182;21.156;2023-03-01T09:01:31;6.50;89.40
16980;DHT22;42288;52.182;21.156;2023-03-01T09:03:57;6.50;89.00
16980;DHT22;42288;52.182;21.156;2023-03-01T09:06:22;6.70;89.00
16980;DHT22;42288;52.182;21.156;2023-03-01T09:08:49;7.00;87.10
16980;DHT22;42288;52.182;21.156;2023-03-01T09:11:17;6.90;87.50
16980;DHT22;42288;52.182;21.156;2023-03-01T09:13:44;7.10;86.60
16980;DHT22;42288;52.182;21.156;2023-03-01T09:16:12;7.20;85.90
16980;DHT22;42288;52.182;21.156;2023-03-01T09:18:38;7.30;85.40
16980;DHT22;42288;52.182;21.156;2023-03-01T09:23:34;7.50;85.60
16980;DHT22;42288;52.182;21.156;2023-03-01T09:26:02;7.60;84.90
16980;DHT22;42288;52.182;21.156;2023-03-01T09:28:28;7.50;85.20
16980;DHT22;42288;52.182;21.156;2023-03-01T09:30:53;7.80;85.60
16980;DHT22;42288;52.182;21.156;2023-03-01T09:33:19;7.70;84.80
16980;DHT22;42288;52.182;21.156;2023-03-01T09:35:44;7.50;85.20
16980;DHT22;42288;52.182;21.156;2023-03-01T09:38:11;7.70;85.10
16980;DHT22;42288;52.182;21.156;2023-03-01T09:40:42;7.80;84.50
16980;DHT22;42288;52.182;21.156;2023-03-01T09:45:45;8.00;84.10
16980;DHT22;42288;52.182;21.156;2023-03-01T09:48:23;7.80;83.90
16980;DHT22;42288;52.182;21.156;2023-03-01T09:50:50;8.00;84.40
16980;DHT22;42288;52.182;21.156;2023-03-01T09:53:20;8.00;83.80
16980;DHT22;42288;52.182;21.156;2023-03-01T09:55:59;7.90;83.70
16980;DHT22;42288;52.182;21.156;2023-03-01T10:01:35;8.20;83.30
16980;DHT22;42288;52.182;21.156;2023-03-01T10:04:43;8.40;82.90
16980;DHT22;42288;52.182;21.156;2023-03-01T10:09:40;8.60;81.70
16980;DHT22;42288;52.182;21.156;2023-03-01T10:12:11;8.50;81.10
16980;DHT22;42288;52.182;21.156;2023-03-01T10:14:49;8.70;81.80
16980;DHT22;42288;52.182;21.156;2023-03-01T10:17:32;8.80;81.00
16980;DHT22;42288;52.182;21.156;2023-03-01T10:22:45;11.20;76.50
16980;DHT22;42288;52.182;21.156;2023-03-01T10:25:19;12.20;73.00
16980;DHT22;42288;52.182;21.156;2023-03-01T10:27:56;13.30;70.30
16980;DHT22;42288;52.182;21.156;2023-03-01T10:32:59;14.80;64.40
16980;DHT22;42288;52.182;21.156;2023-03-01T10:35:29;14.00;63.70
16980;DHT22;42288;52.182;21.156;2023-03-01T10:40:31;13.30;64.80
16980;DHT22;42288;52.182;21.156;2023-03-01T10:42:58;14.80;64.10
16980;DHT22;42288;52.182;21.156;2023-03-01T10:45:36;17.00;59.70
16980;DHT22;42288;52.182;21.156;2023-03-01T10:48:22;18.30;56.30
16980;DHT22;42288;52.182;21.156;2023-03-01T10:53:40;20.40;53.70
16980;DHT22;42288;52.182;21.156;2023-03-01T10:56:08;21.30;50.60
16980;DHT22;42288;52.182;21.156;2023-03-01T10:58:35;21.60;48.80
16980;DHT22;42288;52.182;21.156;2023-03-01T11:01:05;22.10;47.80
16980;DHT22;42288;52.182;21.156;2023-03-01T11:03:36;21.80;46.90
16980;DHT22;42288;52.182;21.156;2023-03-01T11:08:45;20.60;47.40
16980;DHT22;42288;52.182;21.156;2023-03-01T11:11:30;19.30;48.20
16980;DHT22;42288;52.182;21.156;2023-03-01T11:13:59;17.60;49.10
16980;DHT22;42288;52.182;21.156;2023-03-01T11:16:27;18.00;50.60
16980;DHT22;42288;52.182;21.156;2023-03-01T11:18:57;19.50;49.70
16980;DHT22;42288;52.182;21.156;2023-03-01T11:21:25;20.90;47.90
16980;DHT22;42288;52.182;21.156;2023-03-01T11:23:51;21.00;47.00
16980;DHT22;42288;52.182;21.156;2023-03-01T11:26:18;20.50;46.40
16980;DHT22;42288;52.182;21.156;2023-03-01T11:28:49;20.50;46.30
16980;DHT22;42288;52.182;21.156;2023-03-01T11:31:16;18.90;46.90
16980;DHT22;42288;52.182;21.156;2023-03-01T11:34:05;18.10;48.10
16980;DHT22;42288;52.182;21.156;2023-03-01T11:36:49;17.40;49.80
16980;DHT22;42288;52.182;21.156;2023-03-01T11:42:15;15.80;51.80
16980;DHT22;42288;52.182;21.156;2023-03-01T11:44:43;15.70;52.90
16980;DHT22;42288;52.182;21.156;2023-03-01T11:58:59;14.20;54.30
16980;DHT22;42288;52.182;21.156;2023-03-01T12:09:58;13.60;57.60
16980;DHT22;42288;52.182;21.156;2023-03-01T12:12:35;14.70;56.00
16980;DHT22;42288;52.182;21.156;2023-03-01T12:25:41;14.70;55.10
16980;DHT22;42288;52.182;21.156;2023-03-01T12:31:04;13.90;56.10
16980;DHT22;42288;52.182;21.156;2023-03-01T12:34:43;13.60;56.80
16980;DHT22;42288;52.182;21.156;2023-03-01T12:42:18;13.10;57.90
16980;DHT22;42288;52.182;21.156;2023-03-01T12:45:21;13.00;57.90
16980;DHT22;42288;52.182;21.156;2023-03-01T12:51:07;14.50;57.20
16980;DHT22;42288;52.182;21.156;2023-03-01T12:53:40;15.20;55.90
16980;DHT22;42288;52.182;21.156;2023-03-01T12:56:09;14.70;55.70
16980;DHT22;42288;52.182;21.156;2023-03-01T13:04:19;12.70;59.20
16980;DHT22;42288;52.182;21.156;2023-03-01T13:06:54;12.70;59.80
16980;DHT22;42288;52.182;21.156;2023-03-01T13:18:27;14.30;58.30
16980;DHT22;42288;52.182;21.156;2023-03-01T13:33:46;13.30;58.90
16980;DHT22;42288;52.182;21.156;2023-03-01T13:39:04;13.80;59.30
16980;DHT22;42288;52.182;21.156;2023-03-01T13:46:53;13.40;60.90
16980;DHT22;42288;52.182;21.156;2023-03-01T13:49:28;13.30;61.20
16980;DHT22;42288;52.182;21.156;2023-03-01T13:51:54;12.50;62.50
16980;DHT22;42288;52.182;21.156;2023-03-01T13:54:29;12.40;64.70
16980;DHT22;42288;52.182;21.156;2023-03-01T13:56:57;12.30;63.00
16980;DHT22;42288;52.182;21.156;2023-03-01T13:59:23;12.10;64.20
16980;DHT22;42288;52.182;21.156;2023-03-01T14:02:00;12.10;64.50
16980;DHT22;42288;52.182;21.156;2023-03-01T14:04:30;11.90;66.00
16980;DHT22;42288;52.182;21.156;2023-03-01T14:09:44;11.80;66.10
16980;DHT22;42288;52.182;21.156;2023-03-01T14:15:36;11.40;66.20
16980;DHT22;42288;52.182;21.156;2023-03-01T14:18:35;11.00;67.50
16980;DHT22;42288;52.182;21.156;2023-03-01T14:21:08;11.10;68.60
16980;DHT22;42288;52.182;21.156;2023-03-01T14:23:34;11.20;68.50
16980;DHT22;42288;52.182;21.156;2023-03-01T14:26:01;11.20;67.70
16980;DHT22;42288;52.182;21.156;2023-03-01T14:28:31;11.00;68.50
16980;DHT22;42288;52.182;21.156;2023-03-01T14:31:03;10.80;68.80
16980;DHT22;42288;52.182;21.156;2023-03-01T14:33:35;10.60;69.80
16980;DHT22;42288;52.182;21.156;2023-03-01T14:38:43;10.20;70.80
16980;DHT22;42288;52.182;21.156;2023-03-01T14:41:21;9.90;73.50
16980;DHT22;42288;52.182;21.156;2023-03-01T14:43:54;9.90;73.90
16980;DHT22;42288;52.182;21.156;2023-03-01T14:46:38;9.90;74.20
16980;DHT22;42288;52.182;21.156;2023-03-01T14:51:41;9.90;74.20
16980;DHT22;42288;52.182;21.156;2023-03-01T14:54:39;9.90;74.60
16980;DHT22;42288;52.182;21.156;2023-03-01T14:57:06;10.10;73.40
16980;DHT22;42288;52.182;21.156;2023-03-01T14:59:38;10.30;72.30
16980;DHT22;42288;52.182;21.156;2023-03-01T15:02:04;10.30;72.40
16980;DHT22;42288;52.182;21.156;2023-03-01T15:04:30;10.20;72.30
16980;DHT22;42288;52.182;21.156;2023-03-01T15:06:57;10.20;72.70
16980;DHT22;42288;52.182;21.156;2023-03-01T15:09:32;10.20;72.60
16980;DHT22;42288;52.182;21.156;2023-03-01T15:11:59;10.10;72.50
16980;DHT22;42288;52.182;21.156;2023-03-01T15:14:27;9.70;74.60
16980;DHT22;42288;52.182;21.156;2023-03-01T15:16:53;9.80;75.70
16980;DHT22;42288;52.182;21.156;2023-03-01T15:19:19;9.70;75.90
16980;DHT22;42288;52.182;21.156;2023-03-01T15:21:48;9.80;75.50
16980;DHT22;42288;52.182;21.156;2023-03-01T15:24:23;9.90;75.70
16980;DHT22;42288;52.182;21.156;2023-03-01T15:26:58;9.90;75.70
16980;DHT22;42288;52.182;21.156;2023-03-01T15:29:29;9.90;75.60
16980;DHT22;42288;52.182;21.156;2023-03-01T15:31:58;9.80;76.00
16980;DHT22;42288;52.182;21.156;2023-03-01T15:36:56;9.80;76.00
16980;DHT22;42288;52.182;21.156;2023-03-01T15:39:43;9.60;76.50
16980;DHT22;42288;52.182;21.156;2023-03-01T15:45:19;9.10;77.80
16980;DHT22;42288;52.182;21.156;2023-03-01T15:47:50;9.10;78.80
16980;DHT22;42288;52.182;21.156;2023-03-01T15:50:21;9.00;78.90
16980;DHT22;42288;52.182;21.156;2023-03-01T15:52:47;8.80;79.70
16980;DHT22;42288;52.182;21.156;2023-03-01T15:55:19;8.90;80.20
16980;DHT22;42288;52.182;21.156;2023-03-01T15:57:45;9.10;80.00
16980;DHT22;42288;52.182;21.156;2023-03-01T16:00:12;9.00;79.70
16980;DHT22;42288;52.182;21.156;2023-03-01T16:02:39;8.90;80.20
16980;DHT22;42288;52.182;21.156;2023-03-01T16:05:06;8.20;81.20
16980;DHT22;42288;52.182;21.156;2023-03-01T16:07:32;7.80;83.10
16980;DHT22;42288;52.182;21.156;2023-03-01T16:09:57;7.50;84.60
16980;DHT22;42288;52.182;21.156;2023-03-01T16:12:23;7.40;85.40
16980;DHT22;42288;52.182;21.156;2023-03-01T16:14:49;7.60;86.00
16980;DHT22;42288;52.182;21.156;2023-03-01T16:17:15;7.70;85.00
16980;DHT22;42288;52.182;21.156;2023-03-01T16:19:41;7.60;85.60
16980;DHT22;42288;52.182;21.156;2023-03-01T16:22:09;7.60;85.20
16980;DHT22;42288;52.182;21.156;2023-03-01T16:24:35;7.70;85.30
16980;DHT22;42288;52.182;21.156;2023-03-01T16:27:01;7.90;84.40
16980;DHT22;42288;52.182;21.156;2023-03-01T16:29:27;7.70;84.90
16980;DHT22;42288;52.182;21.156;2023-03-01T16:31:54;7.70;84.80
16980;DHT22;42288;52.182;21.156;2023-03-01T16:34:20;7.60;84.90
16980;DHT22;42288;52.182;21.156;2023-03-01T16:36:47;7.40;84.40
16980;DHT22;42288;52.182;21.156;2023-03-01T16:39:12;7.40;85.60
16980;DHT22;42288;52.182;21.156;2023-03-01T16:41:38;7.30;85.60
16980;DHT22;42288;52.182;21.156;2023-03-01T16:44:03;7.10;86.00
16980;DHT22;42288;52.182;21.156;2023-03-01T16:46:29;7.10;86.70
16980;DHT22;42288;52.182;21.156;2023-03-01T16:48:55;7.00;86.50
16980;DHT22;42288;52.182;21.156;2023-03-01T16:51:21;7.20;86.60
16980;DHT22;42288;52.182;21.156;2023-03-01T16:53:47;7.10;86.80
16980;DHT22;42288;52.182;21.156;2023-03-01T16:56:14;7.20;86.40
16980;DHT22;42288;52.182;21.156;2023-03-01T16:58:41;7.40;85.50
16980;DHT22;42288;52.182;21.156;2023-03-01T17:01:09;7.30;85.80
16980;DHT22;42288;52.182;21.156;2023-03-01T17:03:36;7.30;85.50
16980;DHT22;42288;52.182;21.156;2023-03-01T17:06:08;7.20;85.90
16980;DHT22;42288;52.182;21.156;2023-03-01T17:08:34;7.10;86.50
16980;DHT22;42288;52.182;21.156;2023-03-01T17:11:05;6.80;87.10
16980;DHT22;42288;52.182;21.156;2023-03-01T17:13:31;6.70;87.90
16980;DHT22;42288;52.182;21.156;2023-03-01T17:15:57;6.80;87.80
16980;DHT22;42288;52.182;21.156;2023-03-01T17:18:22;6.80;88.20
16980;DHT22;42288;52.182;21.156;2023-03-01T17:20:49;6.70;88.30
16980;DHT22;42288;52.182;21.156;2023-03-01T17:23:15;6.70;88.40
16980;DHT22;42288;52.182;21.156;2023-03-01T17:25:43;6.30;88.90
16980;DHT22;42288;52.182;21.156;2023-03-01T17:28:13;6.00;90.10
16980;DHT22;42288;52.182;21.156;2023-03-01T17:30:45;6.00;90.50
16980;DHT22;42288;52.182;21.156;2023-03-01T17:33:12;5.70;90.80
16980;DHT22;42288;52.182;21.156;2023-03-01T17:35:38;5.70;91.10
16980;DHT22;42288;52.182;21.156;2023-03-01T17:38:04;5.80;91.10
16980;DHT22;42288;52.182;21.156;2023-03-01T17:40:30;5.70;90.80
16980;DHT22;42288;52.182;21.156;2023-03-01T17:42:56;5.80;91.10